createdAt,value
2023-03-01T00:01:19.891Z,23.20
2023-03-01T00:03:47.644Z,23.85
2023-03-01T00:06:15.733Z,23.08
2023-03-01T00:08:42.878Z,25.00
2023-03-01T00:11:25.403Z,24.48
2023-03-01T00:13:55.484Z,23.60
2023-03-01T00:16:26.787Z,23.48
2023-03-01T00:18:55.725Z,24.85
2023-03-01T00:21:26.222Z,24.15
2023-03-01T00:23:53.659Z,23.83
2023-03-01T00:26:22.372Z,24.50
2023-03-01T00:28:49.909Z,24.77
2023-03-01T00:31:20.332Z,24.52
2023-03-01T00:33:48.146Z,23.65
2023-03-01T00:36:16.737Z,23.15
2023-03-01T00:38:46.488Z,24.40
2023-03-01T00:41:18.677Z,24.75
2023-03-01T00:43:46.269Z,25.83
2023-03-01T00:46:21.711Z,25.10
2023-03-01T00:48:50.027Z,23.98
2023-03-01T00:51:21.265Z,24.73
2023-03-01T00:53:51.043Z,24.90
2023-03-01T00:56:18.587Z,26.17
2023-03-01T00:58:45.758Z,25.73
2023-03-01T01:01:24.412Z,24.70
2023-03-01T01:04:05.310Z,24.65
2023-03-01T01:06:38.353Z,23.85
2023-03-01T01:09:09.897Z,24.55
2023-03-01T01:11:40.132Z,23.55
2023-03-01T01:14:07.214Z,23.38
2023-03-01T01:16:34.690Z,23.83
2023-03-01T01:19:02.911Z,24.35
2023-03-01T01:21:30.581Z,23.88
2023-03-01T01:23:58.157Z,25.05
2023-03-01T01:26:29.141Z,24.60
2023-03-01T01:28:56.956Z,25.05
2023-03-01T01:31:25.773Z,24.25
2023-03-01T01:33:54.370Z,23.83
2023-03-01T01:36:22.418Z,24.02
2023-03-01T01:38:49.727Z,22.90
2023-03-01T01:41:17.129Z,23.90
2023-03-01T01:43:49.865Z,23.73
2023-03-01T01:46:33.094Z,22.33
2023-03-01T01:49:05.125Z,22.67
2023-03-01T01:51:40.176Z,21.45
2023-03-01T01:54:37.543Z,22.52
2023-03-01T01:57:10.409Z,22.33
2023-03-01T01:59:39.013Z,22.17
2023-03-01T02:02:06.626Z,21.08
2023-03-01T02:04:34.204Z,22.45
2023-03-01T02:07:24.021Z,21.67
2023-03-01T02:09:53.711Z,21.80
2023-03-01T02:12:25.811Z,23.27
2023-03-01T02:14:53.292Z,22.17
2023-03-01T02:17:22.297Z,22.02
2023-03-01T02:20:11.848Z,19.38
2023-03-01T02:22:40.386Z,20.50
2023-03-01T02:25:21.304Z,21.35
2023-03-01T02:28:41.468Z,21.65
2023-03-01T02:33:57.134Z,20.08
2023-03-01T02:36:32.235Z,20.88
2023-03-01T02:39:02.634Z,19.98
2023-03-01T02:41:33.501Z,20.33
2023-03-01T02:44:00.684Z,19.83
2023-03-01T02:46:28.139Z,20.55
2023-03-01T02:48:59.662Z,20.48
2023-03-01T02:51:32.815Z,19.88
2023-03-01T02:54:19.084Z,19.48
2023-03-01T02:56:50.078Z,20.70
2023-03-01T02:59:22.222Z,20.90
2023-03-01T03:01:49.656Z,20.98
2023-03-01T03:04:20.193Z,19.77
2023-03-01T03:06:51.465Z,19.58
2023-03-01T03:09:19.694Z,19.38
2023-03-01T03:11:47.510Z,20.65
2023-03-01T03:14:16.771Z,21.00
2023-03-01T03:16:49.450Z,20.45
2023-03-01T03:19:18.113Z,21.05
2023-03-01T03:21:45.665Z,20.27
2023-03-01T03:24:12.923Z,20.45
2023-03-01T03:26:40.007Z,21.10
2023-03-01T03:29:07.260Z,21.17
2023-03-01T03:31:35.176Z,21.05
2023-03-01T03:34:02.345Z,21.55
2023-03-01T03:36:29.850Z,19.50
2023-03-01T03:38:57.150Z,21.42
2023-03-01T03:41:24.230Z,20.77
2023-03-01T03:43:51.395Z,21.20
2023-03-01T03:46:18.527Z,19.95
2023-03-01T03:48:46.773Z,19.73
2023-03-01T03:51:18.362Z,20.45
2023-03-01T03:53:46.982Z,19.77
2023-03-01T03:56:14.385Z,19.20
2023-03-01T03:58:41.693Z,18.75
2023-03-01T04:01:08.928Z,17.95
2023-03-01T04:03:36.378Z,18.73
2023-03-01T04:06:05.182Z,18.02
2023-03-01T04:08:32.910Z,19.10
2023-03-01T04:11:22.868Z,19.33
2023-03-01T04:13:50.216Z,18.52
2023-03-01T04:16:18.926Z,19.20
2023-03-01T04:18:46.537Z,19.35
2023-03-01T04:21:14.091Z,19.17
2023-03-01T04:23:42.194Z,18.45
2023-03-01T04:26:09.652Z,19.00
2023-03-01T04:28:41.132Z,19.83
2023-03-01T04:31:18.685Z,19.90
2023-03-01T04:33:53.760Z,19.83
2023-03-01T04:36:25.330Z,20.15
2023-03-01T04:38:53.170Z,20.05
2023-03-01T04:41:22.295Z,20.42
2023-03-01T04:43:50.086Z,20.98
2023-03-01T04:46:19.916Z,20.40
2023-03-01T04:48:48.533Z,21.05
2023-03-01T04:51:16.925Z,20.95
2023-03-01T04:53:45.175Z,20.27
2023-03-01T04:56:15.022Z,20.58
2023-03-01T04:58:42.948Z,19.63
2023-03-01T05:01:18.409Z,20.33
2023-03-01T05:03:50.129Z,20.20
2023-03-01T05:06:18.933Z,19.83
2023-03-01T05:08:46.491Z,20.35
2023-03-01T05:11:14.120Z,20.30
2023-03-01T05:13:41.831Z,21.02
2023-03-01T05:16:13.309Z,20.35
2023-03-01T05:18:42.005Z,20.70
2023-03-01T05:21:17.443Z,20.85
2023-03-01T05:23:45.096Z,21.17
2023-03-01T05:26:27.453Z,20.63
2023-03-01T05:29:00.390Z,21.08
2023-03-01T05:31:28.152Z,21.05
2023-03-01T05:33:55.324Z,21.75
2023-03-01T05:36:22.505Z,21.83
2023-03-01T05:38:49.603Z,20.73
2023-03-01T05:41:18.191Z,20.88
2023-03-01T05:43:46.261Z,21.23
2023-03-01T05:46:14.593Z,21.58
2023-03-01T05:48:42.218Z,19.65
2023-03-01T05:51:09.524Z,19.98
2023-03-01T05:53:36.693Z,19.98
2023-03-01T05:56:07.359Z,21.83
2023-03-01T05:58:34.546Z,21.02
2023-03-01T06:01:01.737Z,20.80
2023-03-01T06:03:28.817Z,20.98
2023-03-01T06:06:00.014Z,21.02
2023-03-01T06:08:28.532Z,21.38
2023-03-01T06:10:55.900Z,22.05
2023-03-01T06:13:24.730Z,20.95
2023-03-01T06:15:52.300Z,20.73
2023-03-01T06:18:19.459Z,21.35
2023-03-01T06:20:46.675Z,21.25
2023-03-01T06:23:13.860Z,21.13
2023-03-01T06:25:41.144Z,20.15
2023-03-01T06:28:09.279Z,19.17
2023-03-01T06:30:36.441Z,20.67
2023-03-01T06:33:04.378Z,20.17
2023-03-01T06:35:32.304Z,20.35
2023-03-01T06:38:01.481Z,19.80
2023-03-01T06:40:29.106Z,19.27
2023-03-01T06:42:56.235Z,20.02
2023-03-01T06:45:23.322Z,19.52
2023-03-01T06:47:50.462Z,19.10
2023-03-01T06:50:19.246Z,19.70
2023-03-01T06:55:15.092Z,19.38
2023-03-01T06:57:42.103Z,19.88
2023-03-01T07:00:10.190Z,19.35
2023-03-01T07:02:37.265Z,19.42
2023-03-01T07:05:04.574Z,19.25
2023-03-01T07:07:31.704Z,19.60
2023-03-01T07:09:58.816Z,18.85
2023-03-01T07:12:25.974Z,18.50
2023-03-01T07:14:53.033Z,19.20
2023-03-01T07:17:20.184Z,20.00
2023-03-01T07:19:47.296Z,20.38
2023-03-01T07:22:14.338Z,18.52
2023-03-01T07:24:42.993Z,19.10
2023-03-01T07:27:10.493Z,19.63
2023-03-01T07:29:38.065Z,18.70
2023-03-01T07:32:06.332Z,19.85
2023-03-01T07:34:33.865Z,17.85
2023-03-01T07:37:00.992Z,19.25
2023-03-01T07:39:28.144Z,17.58
2023-03-01T07:41:55.307Z,17.67
2023-03-01T07:44:23.456Z,18.15
2023-03-01T07:46:50.531Z,18.98
2023-03-01T07:49:17.697Z,18.52
2023-03-01T07:51:44.798Z,18.50
2023-03-01T07:54:11.991Z,18.73
2023-03-01T07:56:39.032Z,18.80
2023-03-01T07:59:06.138Z,16.23
2023-03-01T08:01:33.173Z,17.90
2023-03-01T08:04:00.492Z,15.80
2023-03-01T08:06:27.733Z,16.35
2023-03-01T08:08:59.550Z,16.10
2023-03-01T08:11:26.933Z,17.55
2023-03-01T08:13:54.055Z,17.80
2023-03-01T08:16:21.964Z,18.02
2023-03-01T08:18:49.096Z,16.77
2023-03-01T08:21:18.854Z,16.35
2023-03-01T08:23:46.383Z,14.23
2023-03-01T08:26:16.913Z,15.35
2023-03-01T08:28:44.306Z,17.23
2023-03-01T08:31:15.955Z,13.63
2023-03-01T08:33:43.323Z,14.65
2023-03-01T08:36:10.674Z,13.30
2023-03-01T08:38:37.873Z,13.77
2023-03-01T08:41:05.238Z,13.85
2023-03-01T08:43:32.384Z,15.00
2023-03-01T08:45:59.598Z,13.90
2023-03-01T08:48:28.735Z,13.02
2023-03-01T08:50:56.322Z,12.13
2023-03-01T08:53:23.600Z,12.02
2023-03-01T08:55:50.908Z,12.55
2023-03-01T08:58:18.124Z,12.15
2023-03-01T09:00:45.787Z,12.15
2023-03-01T09:03:13.142Z,11.70
2023-03-01T09:05:40.304Z,10.55
2023-03-01T09:08:10.070Z,11.07
2023-03-01T09:10:40.529Z,10.88
2023-03-01T09:13:07.741Z,11.73
2023-03-01T09:15:35.069Z,11.20
2023-03-01T09:18:02.311Z,11.57
2023-03-01T09:20:29.810Z,10.70
2023-03-01T09:22:57.040Z,11.57
2023-03-01T09:25:24.898Z,11.82
2023-03-01T09:27:53.709Z,11.57
2023-03-01T09:30:21.796Z,12.13
2023-03-01T09:32:49.110Z,13.02
2023-03-01T09:35:16.374Z,14.38
2023-03-01T09:37:45.918Z,12.98
2023-03-01T09:40:18.841Z,13.10
2023-03-01T09:43:14.973Z,13.50
2023-03-01T09:45:46.288Z,13.07
2023-03-01T09:48:23.415Z,13.18
2023-03-01T09:50:51.256Z,13.93
2023-03-01T09:53:23.394Z,14.18
2023-03-01T09:56:03.299Z,15.48
2023-03-01T09:58:55.752Z,15.77
2023-03-01T10:01:50.276Z,17.42
2023-03-01T10:04:38.799Z,18.95
2023-03-01T10:07:05.892Z,18.23
2023-03-01T10:09:35.667Z,16.58
2023-03-01T10:12:07.906Z,16.38
2023-03-01T10:14:45.188Z,15.65
2023-03-01T10:17:32.657Z,17.83
2023-03-01T10:20:17.316Z,14.90
2023-03-01T10:22:47.875Z,15.18
2023-03-01T10:25:16.782Z,15.48
2023-03-01T10:27:54.221Z,15.75
2023-03-01T10:30:40.577Z,16.92
2023-03-01T10:33:18.794Z,16.02
2023-03-01T10:35:45.908Z,15.57
2023-03-01T10:38:15.207Z,16.65
2023-03-01T10:41:08.505Z,15.18
2023-03-01T10:43:48.932Z,14.75
2023-03-01T10:46:37.699Z,16.85
2023-03-01T10:49:22.696Z,15.43
2023-03-01T10:51:54.658Z,16.00
2023-03-01T10:54:33.855Z,15.50
2023-03-01T10:57:04.830Z,15.25
2023-03-01T10:59:36.992Z,14.27
2023-03-01T11:02:24.897Z,13.73
2023-03-01T11:05:02.700Z,14.93
2023-03-01T11:07:30.966Z,15.23
2023-03-01T11:09:58.110Z,14.10
2023-03-01T11:12:25.752Z,14.60
2023-03-01T11:14:55.757Z,12.93
2023-03-01T11:17:28.413Z,13.90
2023-03-01T11:20:11.763Z,13.60
2023-03-01T11:22:46.295Z,13.98
2023-03-01T11:25:15.790Z,12.40
2023-03-01T11:27:45.796Z,13.10
2023-03-01T11:30:41.402Z,12.85
2023-03-01T11:33:34.297Z,13.52
2023-03-01T11:36:14.682Z,13.98
2023-03-01T11:38:42.766Z,14.40
2023-03-01T11:41:33.416Z,12.75
2023-03-01T11:44:24.627Z,12.35
2023-03-01T11:47:05.622Z,13.00
2023-03-01T11:49:42.905Z,13.40
2023-03-01T11:52:12.877Z,12.05
2023-03-01T11:55:08.891Z,13.93
2023-03-01T11:57:44.739Z,12.73
2023-03-01T12:00:45.770Z,13.80
2023-03-01T12:03:12.898Z,13.13
2023-03-01T12:06:25.386Z,13.60
2023-03-01T12:09:13.473Z,12.82
2023-03-01T12:12:03.379Z,14.23
2023-03-01T12:14:51.943Z,13.02
2023-03-01T12:17:36.989Z,12.50
2023-03-01T12:20:21.716Z,13.98
2023-03-01T12:23:19.640Z,13.18
2023-03-01T12:25:57.198Z,13.68
2023-03-01T12:28:59.638Z,13.65
2023-03-01T12:31:42.090Z,13.60
2023-03-01T12:34:57.108Z,13.80
2023-03-01T12:37:58.369Z,12.13
2023-03-01T12:40:25.699Z,12.68
2023-03-01T12:43:19.824Z,13.38
2023-03-01T12:46:41.712Z,12.23
2023-03-01T12:49:17.220Z,12.82
2023-03-01T12:52:02.760Z,11.10
2023-03-01T12:54:32.536Z,10.40
2023-03-01T12:57:23.776Z,11.75
2023-03-01T13:00:29.464Z,11.85
2023-03-01T13:03:11.251Z,12.15
2023-03-01T13:06:04.639Z,12.63
2023-03-01T13:08:57.843Z,11.68
2023-03-01T13:11:25.363Z,12.35
2023-03-01T13:13:55.601Z,12.45
2023-03-01T13:16:31.795Z,11.85
2023-03-01T13:19:19.355Z,12.07
2023-03-01T13:21:48.150Z,12.65
2023-03-01T13:24:33.883Z,11.77
2023-03-01T13:27:07.131Z,12.70
2023-03-01T13:29:49.514Z,13.18
2023-03-01T13:32:44.876Z,13.85
2023-03-01T13:35:12.336Z,12.45
2023-03-01T13:37:39.681Z,11.80
2023-03-01T13:40:26.805Z,13.07
2023-03-01T13:43:06.252Z,13.02
2023-03-01T13:45:33.485Z,12.45
2023-03-01T13:48:06.274Z,12.50
2023-03-01T13:50:41.717Z,12.73
2023-03-01T13:53:15.979Z,12.07
2023-03-01T13:55:49.658Z,12.45
2023-03-01T13:58:32.756Z,12.05
2023-03-01T14:01:09.773Z,13.15
2023-03-01T14:03:43.226Z,12.77
2023-03-01T14:06:20.947Z,12.05
2023-03-01T14:08:51.671Z,12.35
2023-03-01T14:11:50.185Z,12.30
2023-03-01T14:14:40.156Z,12.82
2023-03-01T14:17:33.716Z,13.10
2023-03-01T14:20:10.591Z,13.20
2023-03-01T14:22:38.313Z,12.68
2023-03-01T14:25:39.384Z,12.40
2023-03-01T14:28:16.445Z,12.10
2023-03-01T14:30:46.552Z,12.18
2023-03-01T14:33:34.910Z,12.38
2023-03-01T14:36:11.127Z,11.90
2023-03-01T14:38:42.713Z,12.57
2023-03-01T14:41:19.882Z,12.13
2023-03-01T14:43:49.190Z,13.15
2023-03-01T14:46:27.533Z,12.48
2023-03-01T14:48:59.338Z,11.55
2023-03-01T14:51:26.478Z,11.38
2023-03-01T14:53:54.010Z,10.07
2023-03-01T14:56:21.601Z,10.60
2023-03-01T14:58:54.415Z,9.60
2023-03-01T15:01:22.428Z,10.13
2023-03-01T15:03:51.435Z,10.07
2023-03-01T15:06:23.970Z,8.43
2023-03-01T15:08:54.259Z,8.60
2023-03-01T15:13:52.756Z,8.48
2023-03-01T15:16:24.469Z,8.52
2023-03-01T15:19:00.995Z,7.80
2023-03-01T15:21:40.129Z,8.27
2023-03-01T15:24:21.587Z,8.82
2023-03-01T15:26:52.319Z,8.32
2023-03-01T15:29:22.607Z,8.73
2023-03-01T15:34:31.216Z,8.30
2023-03-01T15:37:01.273Z,8.57
2023-03-01T15:39:39.537Z,9.55
2023-03-01T15:42:09.909Z,9.07
2023-03-01T15:44:43.754Z,8.57
2023-03-01T15:47:27.930Z,9.45
2023-03-01T15:49:56.779Z,10.13
2023-03-01T15:52:41.571Z,9.85
2023-03-01T15:55:19.366Z,10.52
2023-03-01T15:57:47.372Z,10.68
2023-03-01T16:00:16.328Z,10.98
2023-03-01T16:02:46.350Z,12.00
2023-03-01T16:05:24.443Z,11.13
2023-03-01T16:07:52.934Z,11.25
2023-03-01T16:10:21.130Z,10.30
2023-03-01T16:12:52.324Z,11.02
2023-03-01T16:15:25.248Z,11.30
2023-03-01T16:17:53.451Z,10.68
2023-03-01T16:20:29.114Z,13.32
2023-03-01T16:23:02.613Z,13.07
2023-03-01T16:25:31.367Z,12.75
2023-03-01T16:28:00.643Z,13.88
2023-03-01T16:30:28.313Z,14.23
2023-03-01T16:32:55.460Z,15.02
2023-03-01T16:35:23.261Z,14.65
2023-03-01T16:37:53.841Z,14.52
2023-03-01T16:40:29.267Z,14.77
2023-03-01T16:43:01.107Z,15.55
2023-03-01T16:45:33.903Z,16.33
2023-03-01T16:48:01.102Z,16.83
2023-03-01T16:50:28.219Z,17.02
2023-03-01T16:52:55.314Z,16.98
2023-03-01T16:55:22.480Z,18.70
2023-03-01T16:57:49.622Z,18.58
2023-03-01T17:00:16.982Z,20.20
2023-03-01T17:02:44.189Z,17.67
2023-03-01T17:05:13.059Z,18.83
2023-03-01T17:07:40.819Z,19.67
2023-03-01T17:10:10.255Z,18.45
2023-03-01T17:12:37.837Z,19.53
2023-03-01T17:15:06.406Z,18.13
2023-03-01T17:17:33.854Z,18.92
2023-03-01T17:20:02.930Z,19.20
2023-03-01T17:22:31.584Z,18.77
2023-03-01T17:24:58.888Z,18.85
2023-03-01T17:27:26.182Z,18.55
2023-03-01T17:29:53.329Z,19.55
2023-03-01T17:32:20.615Z,19.48
2023-03-01T17:34:47.794Z,18.98
2023-03-01T17:37:14.950Z,19.13
2023-03-01T17:39:42.002Z,19.25
2023-03-01T17:42:09.337Z,19.42
2023-03-01T17:44:36.399Z,19.52
2023-03-01T17:47:05.407Z,19.02
2023-03-01T17:49:33.286Z,20.42
2023-03-01T17:52:00.843Z,19.10
2023-03-01T17:54:27.923Z,19.65
2023-03-01T17:56:56.318Z,20.17
2023-03-01T17:59:23.490Z,21.55
2023-03-01T18:01:50.696Z,21.40
2023-03-01T18:04:18.646Z,21.70
2023-03-01T18:06:45.864Z,23.48
2023-03-01T18:09:13.079Z,21.85
2023-03-01T18:11:42.248Z,21.60
2023-03-01T18:14:09.284Z,21.95
2023-03-01T18:16:36.575Z,21.85
2023-03-01T18:19:03.725Z,22.33
2023-03-01T18:21:31.166Z,21.00
2023-03-01T18:24:00.044Z,22.85
2023-03-01T18:26:28.131Z,21.08
2023-03-01T18:28:58.483Z,24.98
2023-03-01T18:31:25.814Z,23.20
2023-03-01T18:33:57.873Z,22.83
2023-03-01T18:36:30.832Z,23.08
2023-03-01T18:38:58.456Z,22.63
2023-03-01T18:41:27.760Z,22.70
2023-03-01T18:43:56.103Z,22.47
2023-03-01T18:46:23.609Z,23.02
2023-03-01T18:48:52.811Z,22.08
2023-03-01T18:51:23.867Z,22.33
2023-03-01T18:53:51.399Z,24.38
2023-03-01T18:56:18.536Z,22.33
2023-03-01T18:58:45.847Z,23.00
2023-03-01T19:01:22.461Z,23.48
2023-03-01T19:03:49.812Z,23.60
2023-03-01T19:06:17.866Z,23.90
2023-03-01T19:08:46.034Z,23.40
2023-03-01T19:11:15.226Z,24.33
2023-03-01T19:13:42.380Z,24.48
2023-03-01T19:16:12.050Z,25.45
2023-03-01T19:18:41.322Z,27.17
2023-03-01T19:21:10.301Z,25.93
2023-03-01T19:23:38.728Z,27.00
2023-03-01T19:26:09.023Z,26.85
2023-03-01T19:28:38.401Z,27.42
2023-03-01T19:31:12.907Z,29.33
2023-03-01T19:33:40.788Z,27.83
2023-03-01T19:36:09.454Z,26.67
2023-03-01T19:38:38.190Z,26.42
2023-03-01T19:41:08.095Z,24.73
2023-03-01T19:43:36.105Z,27.58
2023-03-01T19:46:03.816Z,25.17
2023-03-01T19:48:31.048Z,26.25
2023-03-01T19:50:58.813Z,25.38
2023-03-01T19:53:26.146Z,24.75
2023-03-01T19:56:01.090Z,36.40
2023-03-01T19:58:30.070Z,33.15
2023-03-01T20:01:01.056Z,33.90
2023-03-01T20:03:30.505Z,28.48
2023-03-01T20:05:58.736Z,28.73
2023-03-01T20:08:26.196Z,25.45
2023-03-01T20:10:53.363Z,25.42
2023-03-01T20:13:23.498Z,25.17
2023-03-01T20:15:50.912Z,25.25
2023-03-01T20:18:18.183Z,25.55
2023-03-01T20:20:49.398Z,33.17
2023-03-01T20:23:18.319Z,40.05
2023-03-01T20:25:46.724Z,27.30
2023-03-01T20:28:13.978Z,26.60
2023-03-01T20:30:41.723Z,25.23
2023-03-01T20:33:08.997Z,27.85
2023-03-01T20:35:36.476Z,31.75
2023-03-01T20:38:04.290Z,26.80
2023-03-01T20:40:32.168Z,23.80
2023-03-01T20:42:59.413Z,25.25
2023-03-01T20:45:28.248Z,23.90
2023-03-01T20:47:55.640Z,25.50
2023-03-01T20:50:22.877Z,25.35
2023-03-01T20:52:50.108Z,28.00
2023-03-01T20:55:17.297Z,27.35
2023-03-01T20:57:44.493Z,29.85
2023-03-01T21:00:12.213Z,30.40
2023-03-01T21:02:39.554Z,31.58
2023-03-01T21:05:07.139Z,29.48
2023-03-01T21:07:34.280Z,28.85
2023-03-01T21:10:01.575Z,31.33
2023-03-01T21:12:28.640Z,39.00
2023-03-01T21:14:55.758Z,32.45
2023-03-01T21:17:22.979Z,30.67
2023-03-01T21:19:50.917Z,31.00
2023-03-01T21:22:18.027Z,31.38
2023-03-01T21:24:45.700Z,31.33
2023-03-01T21:27:12.868Z,31.02
2023-03-01T21:29:41.502Z,32.80
2023-03-01T21:32:10.327Z,34.38
2023-03-01T21:34:38.408Z,36.90
2023-03-01T21:37:06.427Z,35.65
2023-03-01T21:39:34.072Z,36.33
2023-03-01T21:42:03.599Z,35.65
2023-03-01T21:44:32.052Z,34.15
2023-03-01T21:46:59.512Z,35.03
2023-03-01T21:49:27.269Z,33.50
2023-03-01T21:51:54.910Z,34.03
2023-03-01T21:54:22.110Z,36.45
2023-03-01T21:56:51.081Z,36.47
2023-03-01T21:59:23.200Z,34.17
2023-03-01T22:01:53.452Z,34.30
2023-03-01T22:06:54.591Z,32.22
2023-03-01T22:09:23.866Z,35.72
2023-03-01T22:12:02.802Z,33.73
2023-03-01T22:14:31.786Z,34.03
2023-03-01T22:16:59.292Z,33.42
2023-03-01T22:19:28.871Z,32.95
2023-03-01T22:21:56.206Z,33.72
2023-03-01T22:24:25.500Z,33.38
2023-03-01T22:26:53.787Z,30.50
2023-03-01T22:29:27.376Z,31.60
2023-03-01T22:31:56.117Z,31.85
2023-03-01T22:34:23.757Z,34.60
2023-03-01T22:36:51.182Z,32.17
2023-03-01T22:39:20.225Z,31.92
2023-03-01T22:41:49.010Z,30.35
2023-03-01T22:44:18.910Z,29.25
2023-03-01T22:46:46.683Z,30.00
2023-03-01T22:49:14.443Z,29.58
2023-03-01T22:51:43.354Z,31.42
2023-03-01T22:54:11.393Z,29.80
2023-03-01T22:56:39.470Z,29.77
2023-03-01T22:59:09.837Z,27.25
2023-03-01T23:01:38.874Z,28.30
2023-03-01T23:04:06.381Z,28.35
2023-03-01T23:06:34.102Z,29.40
2023-03-01T23:09:04.427Z,29.17
2023-03-01T23:11:31.863Z,27.77
2023-03-01T23:13:59.836Z,27.88
2023-03-01T23:16:27.304Z,30.35
2023-03-01T23:18:56.238Z,28.85
2023-03-01T23:21:23.399Z,28.98
2023-03-01T23:23:51.229Z,32.13
2023-03-01T23:26:19.266Z,28.50
2023-03-01T23:28:47.598Z,27.02
2023-03-01T23:31:16.234Z,29.25
2023-03-01T23:33:45.364Z,28.20
2023-03-01T23:36:19.786Z,29.02
2023-03-01T23:38:48.559Z,28.23
2023-03-01T23:41:19.097Z,26.95
2023-03-01T23:43:47.497Z,35.42
2023-03-01T23:46:16.387Z,32.72
2023-03-01T23:48:45.156Z,30.10
2023-03-01T23:51:13.382Z,30.20
2023-03-01T23:53:43.739Z,30.58
2023-03-01T23:56:13.180Z,32.83
2023-03-01T23:58:40.361Z,33.08
